createdAt,value
2022-09-11T00:00:24.785Z,15.50
2022-09-11T00:03:11.098Z,15.49
2022-09-11T00:07:10.277Z,15.54
2022-09-11T00:13:31.963Z,15.57
2022-09-11T00:16:27.033Z,15.56
2022-09-11T00:26:48.392Z,15.31
2022-09-11T00:29:33.839Z,15.33
2022-09-11T00:32:20.041Z,15.30
2022-09-11T00:35:05.738Z,15.29
2022-09-11T00:37:51.496Z,15.30
2022-09-11T00:40:48.452Z,15.28
2022-09-11T00:58:19.313Z,15.32
2022-09-11T01:04:48.460Z,15.31
2022-09-11T01:07:36.314Z,15.26
2022-09-11T01:10:59.383Z,15.24
2022-09-11T01:13:56.118Z,15.29
2022-09-11T01:17:05.157Z,15.30
2022-09-11T01:20:24.263Z,15.28
2022-09-11T01:23:55.257Z,15.21
2022-09-11T01:26:59.568Z,15.18
2022-09-11T01:29:58.459Z,15.11
2022-09-11T01:32:55.322Z,15.03
2022-09-11T01:35:49.914Z,14.96
2022-09-11T01:38:41.275Z,14.94
2022-09-11T01:41:44.897Z,14.87
2022-09-11T01:44:36.912Z,14.76
2022-09-11T01:47:28.933Z,14.70
2022-09-11T01:50:17.958Z,14.68
2022-09-11T01:53:06.609Z,14.67
2022-09-11T01:56:02.254Z,14.69
2022-09-11T01:58:59.464Z,14.69
2022-09-11T02:01:51.234Z,14.69
2022-09-11T02:04:44.103Z,14.69
2022-09-11T02:07:37.360Z,14.63
2022-09-11T02:10:47.613Z,14.60
2022-09-11T02:13:51.195Z,14.58
2022-09-11T02:16:51.810Z,14.57
2022-09-11T02:19:39.239Z,14.59
2022-09-11T02:22:25.049Z,14.61
2022-09-11T02:25:11.431Z,14.64
2022-09-11T02:27:57.023Z,14.62
2022-09-11T02:30:42.840Z,14.61
2022-09-11T02:33:33.856Z,14.62
2022-09-11T02:36:32.533Z,14.61
2022-09-11T02:39:34.324Z,14.61
2022-09-11T02:42:50.943Z,14.57
2022-09-11T02:46:24.645Z,14.53
2022-09-11T02:49:36.866Z,14.48
2022-09-11T02:52:56.859Z,14.41
2022-09-11T02:56:00.628Z,14.40
2022-09-11T02:58:55.462Z,14.38
2022-09-11T03:01:53.315Z,14.38
2022-09-11T03:04:41.960Z,14.35
2022-09-11T03:07:27.221Z,14.37
2022-09-11T03:10:12.760Z,14.35
2022-09-11T03:12:59.624Z,14.33
2022-09-11T03:15:45.205Z,14.28
2022-09-11T03:18:32.953Z,14.23
2022-09-11T03:21:18.996Z,14.21
2022-09-11T03:24:05.003Z,14.20
2022-09-11T03:26:52.072Z,14.16
2022-09-11T03:29:37.732Z,14.12
2022-09-11T03:32:23.564Z,14.10
2022-09-11T03:35:09.271Z,14.15
2022-09-11T03:37:55.971Z,14.14
2022-09-11T03:40:44.501Z,14.11
2022-09-11T03:43:30.887Z,14.06
2022-09-11T03:46:17.714Z,14.03
2022-09-11T03:49:03.308Z,13.97
2022-09-11T03:51:49.507Z,13.93
2022-09-11T03:54:35.483Z,13.77
2022-09-11T03:57:20.531Z,13.64
2022-09-11T04:00:07.052Z,13.64
2022-09-11T04:03:05.544Z,13.69
2022-09-11T04:05:57.039Z,13.71
2022-09-11T04:08:42.560Z,13.69
2022-09-11T04:11:34.285Z,13.71
2022-09-11T04:14:22.502Z,13.71
2022-09-11T04:17:08.440Z,13.70
2022-09-11T04:19:54.682Z,13.62
2022-09-11T04:22:40.911Z,13.52
2022-09-11T04:25:26.226Z,13.46
2022-09-11T04:28:12.709Z,13.41
2022-09-11T04:31:04.538Z,13.46
2022-09-11T04:33:54.766Z,13.47
2022-09-11T04:36:48.010Z,13.56
2022-09-11T04:39:38.080Z,13.60
2022-09-11T04:42:23.584Z,13.73
2022-09-11T04:45:11.082Z,13.85
2022-09-11T04:47:56.709Z,13.92
2022-09-11T04:50:42.093Z,13.94
2022-09-11T04:53:39.603Z,13.99
2022-09-11T04:56:31.431Z,14.00
2022-09-11T04:59:20.039Z,14.06
2022-09-11T05:02:10.860Z,14.13
2022-09-11T05:04:59.514Z,14.17
2022-09-11T05:07:50.196Z,14.25
2022-09-11T05:10:38.364Z,14.28
2022-09-11T05:13:24.200Z,14.31
2022-09-11T05:16:12.433Z,14.39
2022-09-11T05:18:59.398Z,14.42
2022-09-11T05:21:44.664Z,14.44
2022-09-11T05:24:30.158Z,14.46
2022-09-11T05:27:16.015Z,14.50
2022-09-11T05:30:02.248Z,14.55
2022-09-11T05:32:53.759Z,14.64
2022-09-11T05:35:38.744Z,14.72
2022-09-11T05:38:24.157Z,14.74
2022-09-11T05:41:12.844Z,14.80
2022-09-11T05:43:58.765Z,14.79
2022-09-11T05:46:44.438Z,14.82
2022-09-11T05:49:29.727Z,14.85
2022-09-11T05:52:16.873Z,14.90
2022-09-11T05:55:02.657Z,14.95
2022-09-11T05:57:52.218Z,14.99
2022-09-11T06:00:37.584Z,14.91
2022-09-11T06:03:23.267Z,14.84
2022-09-11T06:06:13.364Z,14.84
2022-09-11T06:12:01.658Z,14.95
2022-09-11T06:14:47.943Z,14.99
2022-09-11T06:17:33.720Z,15.00
2022-09-11T06:20:19.358Z,15.01
2022-09-11T06:23:10.521Z,15.07
2022-09-11T06:26:11.665Z,15.19
2022-09-11T06:28:59.657Z,15.29
2022-09-11T06:31:45.877Z,15.43
2022-09-11T06:34:32.266Z,15.53
2022-09-11T06:37:21.334Z,15.63
2022-09-11T06:40:07.948Z,15.68
2022-09-11T06:42:54.218Z,15.70
2022-09-11T06:45:43.387Z,15.71
2022-09-11T06:48:30.539Z,15.55
2022-09-11T06:51:18.153Z,15.43
2022-09-11T06:54:07.762Z,15.33
2022-09-11T06:56:54.342Z,15.26
2022-09-11T06:59:39.729Z,15.26
2022-09-11T07:02:25.568Z,15.33
2022-09-11T07:05:13.211Z,15.46
2022-09-11T07:07:58.442Z,15.57
2022-09-11T07:10:47.271Z,15.63
2022-09-11T07:13:37.187Z,15.65
2022-09-11T07:16:23.741Z,15.67
2022-09-11T07:19:13.249Z,15.72
2022-09-11T07:21:58.867Z,15.77
2022-09-11T07:24:47.327Z,15.70
2022-09-11T07:27:33.662Z,15.73
2022-09-11T07:30:22.854Z,15.82
2022-09-11T07:33:12.086Z,15.96
2022-09-11T07:35:57.435Z,16.12
2022-09-11T07:38:44.572Z,16.26
2022-09-11T07:41:31.976Z,16.35
2022-09-11T07:44:22.744Z,16.55
2022-09-11T07:47:08.407Z,16.69
2022-09-11T07:49:59.576Z,16.89
2022-09-11T07:52:44.962Z,17.23
2022-09-11T07:55:31.158Z,17.44
2022-09-11T07:58:19.446Z,17.67
2022-09-11T08:01:06.781Z,17.84
2022-09-11T08:03:58.144Z,17.67
2022-09-11T08:06:46.324Z,17.68
2022-09-11T08:09:39.870Z,17.80
2022-09-11T08:12:26.571Z,17.87
2022-09-11T08:15:11.925Z,17.96
2022-09-11T08:17:57.436Z,17.92
2022-09-11T08:20:42.944Z,17.66
2022-09-11T08:23:28.120Z,17.65
2022-09-11T08:26:19.632Z,17.70
2022-09-11T08:29:06.760Z,17.75
2022-09-11T08:31:56.358Z,17.72
2022-09-11T08:34:44.679Z,17.80
2022-09-11T08:37:30.043Z,17.81
2022-09-11T08:40:15.358Z,17.98
2022-09-11T08:43:03.324Z,18.04
2022-09-11T08:45:51.619Z,18.04
2022-09-11T08:49:11.580Z,18.02
2022-09-11T08:52:01.962Z,17.81
2022-09-11T08:54:48.416Z,17.70
2022-09-11T08:57:42.573Z,17.74
2022-09-11T09:00:43.290Z,17.76
2022-09-11T09:03:38.302Z,17.99
2022-09-11T09:07:07.430Z,18.28
2022-09-11T09:10:18.546Z,18.36
2022-09-11T09:13:28.759Z,18.26
2022-09-11T09:16:36.110Z,18.28
2022-09-11T09:19:26.328Z,18.17
2022-09-11T09:22:11.947Z,18.18
2022-09-11T09:25:02.111Z,18.27
2022-09-11T09:28:25.896Z,18.23
2022-09-11T09:31:16.649Z,18.31
2022-09-11T09:34:12.883Z,18.39
2022-09-11T09:37:05.177Z,18.51
2022-09-11T09:39:51.359Z,18.64
2022-09-11T09:43:02.180Z,18.75
2022-09-11T09:46:02.212Z,18.74
2022-09-11T09:48:47.786Z,18.85
2022-09-11T09:51:33.149Z,19.10
2022-09-11T09:54:22.830Z,19.24
2022-09-11T09:57:10.810Z,19.52
2022-09-11T10:00:02.434Z,19.53
2022-09-11T10:02:58.549Z,19.39
2022-09-11T10:05:44.442Z,19.17
2022-09-11T10:08:34.355Z,18.93
2022-09-11T10:11:28.840Z,18.59
2022-09-11T10:14:49.252Z,18.55
2022-09-11T10:17:33.292Z,18.64
2022-09-11T10:20:18.533Z,18.97
2022-09-11T10:23:26.023Z,19.38
2022-09-11T10:26:36.422Z,19.49
2022-09-11T10:29:29.261Z,19.26
2022-09-11T10:32:18.083Z,18.86
2022-09-11T10:35:09.495Z,19.12
2022-09-11T10:38:38.102Z,19.26
2022-09-11T10:41:28.642Z,19.20
2022-09-11T10:44:15.952Z,19.18
2022-09-11T10:47:15.833Z,19.30
2022-09-11T10:50:17.241Z,19.51
2022-09-11T10:53:17.143Z,19.66
2022-09-11T10:56:14.883Z,19.79
2022-09-11T10:59:07.264Z,19.54
2022-09-11T11:01:53.705Z,19.37
2022-09-11T11:04:39.010Z,19.05
2022-09-11T11:07:53.165Z,18.91
2022-09-11T11:11:06.944Z,18.80
2022-09-11T11:14:14.540Z,18.71
2022-09-11T11:17:05.816Z,18.67
2022-09-11T11:20:21.133Z,18.60
2022-09-11T11:23:13.318Z,18.45
2022-09-11T11:26:21.433Z,18.33
2022-09-11T11:29:25.707Z,18.50
2022-09-11T11:32:19.965Z,18.91
2022-09-11T11:35:26.528Z,18.97
2022-09-11T11:38:41.391Z,19.11
2022-09-11T11:41:35.100Z,19.30
2022-09-11T11:44:35.896Z,19.47
2022-09-11T11:51:08.723Z,19.73
2022-09-11T11:54:06.889Z,19.77
2022-09-11T11:56:56.396Z,19.70
2022-09-11T11:59:44.501Z,19.68
2022-09-11T12:02:51.955Z,19.83
2022-09-11T12:05:38.533Z,20.11
2022-09-11T12:08:24.092Z,20.35
2022-09-11T12:11:12.314Z,20.27
2022-09-11T12:13:57.975Z,20.25
2022-09-11T12:16:44.255Z,20.10
2022-09-11T12:19:29.729Z,20.18
2022-09-11T12:22:32.929Z,20.08
2022-09-11T12:25:21.313Z,19.91
2022-09-11T12:28:22.152Z,20.00
2022-09-11T12:31:08.662Z,19.97
2022-09-11T12:33:54.854Z,19.95
2022-09-11T12:37:04.095Z,20.10
2022-09-11T12:39:53.642Z,20.22
2022-09-11T12:42:38.695Z,19.98
2022-09-11T12:45:38.375Z,20.07
2022-09-11T12:48:33.580Z,20.10
2022-09-11T12:51:38.152Z,19.97
2022-09-11T12:54:31.878Z,19.92
2022-09-11T12:57:29.125Z,19.75
2022-09-11T13:00:23.974Z,19.74
2022-09-11T13:03:28.001Z,19.86
2022-09-11T13:06:13.693Z,19.84
2022-09-11T13:19:39.363Z,19.73
2022-09-11T13:22:31.301Z,19.68
2022-09-11T13:25:27.841Z,19.68
2022-09-11T13:28:20.357Z,19.68
2022-09-11T13:31:17.279Z,19.77
2022-09-11T13:34:05.925Z,19.84
2022-09-11T13:36:56.560Z,19.93
2022-09-11T13:39:43.407Z,20.00
2022-09-11T13:42:29.370Z,20.01
2022-09-11T13:45:20.318Z,20.13
2022-09-11T13:48:19.193Z,20.11
2022-09-11T13:51:06.113Z,20.15
2022-09-11T13:54:56.103Z,20.06
2022-09-11T13:58:01.638Z,19.85
2022-09-11T14:00:50.413Z,19.70
2022-09-11T14:03:36.509Z,19.68
2022-09-11T14:06:21.908Z,19.46
2022-09-11T14:09:13.718Z,19.25
2022-09-11T14:12:03.209Z,19.29
2022-09-11T14:14:56.797Z,19.21
2022-09-11T14:17:42.161Z,19.24
2022-09-11T14:20:31.415Z,19.28
2022-09-11T14:23:30.147Z,19.39
2022-09-11T14:26:18.299Z,19.48
2022-09-11T14:29:32.574Z,19.46
2022-09-11T14:32:37.848Z,19.36
2022-09-11T14:35:25.047Z,19.32
2022-09-11T14:38:15.099Z,19.27
2022-09-11T14:41:04.003Z,19.24
2022-09-11T14:43:49.756Z,19.29
2022-09-11T14:46:35.346Z,19.33
2022-09-11T14:49:21.078Z,19.43
2022-09-11T14:52:06.677Z,19.55
2022-09-11T14:54:52.341Z,19.66
2022-09-11T14:57:37.814Z,19.82
2022-09-11T15:00:23.319Z,19.90
2022-09-11T15:03:08.458Z,19.87
2022-09-11T15:05:58.529Z,19.89
2022-09-11T15:08:45.793Z,19.79
2022-09-11T15:11:37.390Z,19.66
2022-09-11T15:14:51.850Z,19.50
2022-09-11T15:17:31.500Z,19.41
2022-09-11T15:20:18.996Z,19.33
2022-09-11T15:23:04.410Z,19.29
2022-09-11T15:25:49.930Z,19.15
2022-09-11T15:28:35.206Z,19.12
2022-09-11T15:31:20.488Z,19.06
2022-09-11T15:34:07.288Z,19.07
2022-09-11T15:36:52.614Z,19.10
2022-09-11T15:39:38.393Z,19.12
2022-09-11T15:42:23.748Z,19.10
2022-09-11T15:45:09.803Z,19.00
2022-09-11T15:47:55.187Z,19.00
2022-09-11T15:50:40.505Z,18.98
2022-09-11T15:53:29.611Z,18.95
2022-09-11T15:56:25.263Z,18.93
2022-09-11T15:59:12.401Z,18.89
2022-09-11T16:01:59.100Z,18.89
2022-09-11T16:04:44.415Z,18.81
2022-09-11T16:07:29.555Z,18.67
2022-09-11T16:10:14.809Z,18.59
2022-09-11T16:13:01.056Z,18.60
2022-09-11T16:15:49.171Z,18.60
2022-09-11T16:18:40.081Z,18.56
2022-09-11T16:21:27.098Z,18.56
2022-09-11T16:24:14.600Z,18.55
2022-09-11T16:27:01.564Z,18.55
2022-09-11T16:32:52.887Z,18.51
2022-09-11T16:35:39.276Z,18.47
2022-09-11T16:38:25.793Z,18.42
2022-09-11T16:41:20.150Z,18.39
2022-09-11T16:44:07.270Z,18.41
2022-09-11T16:46:52.607Z,18.43
2022-09-11T16:50:03.247Z,18.49
2022-09-11T16:52:43.048Z,18.51
2022-09-11T16:55:28.531Z,18.46
2022-09-11T16:58:14.224Z,18.35
2022-09-11T17:00:59.995Z,18.27
2022-09-11T17:03:55.601Z,18.23
2022-09-11T17:06:40.625Z,18.15
2022-09-11T17:09:26.444Z,18.11
2022-09-11T17:12:17.856Z,18.07
2022-09-11T17:15:03.735Z,18.07
2022-09-11T17:17:49.566Z,18.02
2022-09-11T17:20:34.881Z,17.95
2022-09-11T17:23:20.500Z,17.92
2022-09-11T17:26:12.201Z,17.87
2022-09-11T17:29:01.312Z,17.83
2022-09-11T17:31:46.896Z,17.78
2022-09-11T17:34:32.112Z,17.73
2022-09-11T17:37:17.998Z,17.72
2022-09-11T17:40:05.893Z,17.66
2022-09-11T17:42:51.215Z,17.58
2022-09-11T17:45:36.666Z,17.51
2022-09-11T17:48:22.200Z,17.46
2022-09-11T17:51:13.899Z,17.39
2022-09-11T17:53:59.350Z,17.33
2022-09-11T17:56:46.851Z,17.27
2022-09-11T17:59:32.056Z,17.22
2022-09-11T18:02:18.352Z,17.18
2022-09-11T18:05:04.789Z,17.15
2022-09-11T18:07:50.907Z,17.12
2022-09-11T18:10:37.617Z,17.07
2022-09-11T18:13:22.902Z,17.02
2022-09-11T18:16:11.478Z,16.97
2022-09-11T18:18:57.308Z,16.93
2022-09-11T18:21:45.557Z,16.93
2022-09-11T18:24:35.569Z,16.90
2022-09-11T18:27:20.824Z,16.88
2022-09-11T18:30:06.704Z,16.86
2022-09-11T18:32:51.946Z,16.84
2022-09-11T18:35:38.995Z,16.82
2022-09-11T18:38:31.028Z,16.81
2022-09-11T18:41:22.442Z,16.79
2022-09-11T18:44:15.183Z,16.77
2022-09-11T18:47:04.386Z,16.77
2022-09-11T18:49:51.412Z,16.75
2022-09-11T18:52:38.614Z,16.72
2022-09-11T18:55:24.302Z,16.71
2022-09-11T18:58:10.441Z,16.67
2022-09-11T19:00:56.702Z,16.65
2022-09-11T19:03:45.314Z,16.63
2022-09-11T19:06:30.918Z,16.60
2022-09-11T19:09:19.329Z,16.58
2022-09-11T19:15:16.769Z,16.54
2022-09-11T19:18:05.269Z,16.53
2022-09-11T19:21:10.100Z,16.50
2022-09-11T19:23:57.869Z,16.47
2022-09-11T19:26:45.020Z,16.42
2022-09-11T19:29:33.232Z,16.42
2022-09-11T19:32:19.371Z,16.39
2022-09-11T19:35:08.123Z,16.37
2022-09-11T19:37:55.901Z,16.35
2022-09-11T19:40:40.965Z,16.35
2022-09-11T19:43:34.952Z,16.31
2022-09-11T19:46:26.308Z,16.30
2022-09-11T19:49:11.776Z,16.26
2022-09-11T19:51:58.132Z,16.22
2022-09-11T19:54:45.859Z,16.20
2022-09-11T19:57:30.940Z,16.18
2022-09-11T20:00:16.375Z,16.15
2022-09-11T20:03:02.051Z,16.11
2022-09-11T20:05:48.409Z,16.07
2022-09-11T20:08:35.616Z,16.03
2022-09-11T20:11:25.235Z,15.97
2022-09-11T20:14:10.658Z,15.95
2022-09-11T20:16:55.746Z,15.90
2022-09-11T20:19:44.643Z,15.89
2022-09-11T20:22:29.942Z,15.88
2022-09-11T20:25:15.532Z,15.87
2022-09-11T20:28:00.983Z,15.87
2022-09-11T20:30:46.368Z,15.84
2022-09-11T20:33:31.748Z,15.79
2022-09-11T20:36:18.448Z,15.79
2022-09-11T20:39:05.259Z,15.76
2022-09-11T20:41:50.637Z,15.73
2022-09-11T20:44:37.234Z,15.70
2022-09-11T20:47:23.340Z,15.66
2022-09-11T20:50:09.537Z,15.62
2022-09-11T20:52:55.317Z,15.63
2022-09-11T20:55:43.598Z,15.62
2022-09-11T20:58:29.501Z,15.61
2022-09-11T21:01:19.133Z,15.61
2022-09-11T21:04:04.506Z,15.61
2022-09-11T21:06:52.156Z,15.61
2022-09-11T21:09:40.082Z,15.60
2022-09-11T21:12:25.298Z,15.59
2022-09-11T21:15:10.641Z,15.57
2022-09-11T21:17:56.582Z,15.54
2022-09-11T21:20:41.921Z,15.54
2022-09-11T21:23:27.031Z,15.56
2022-09-11T21:26:15.525Z,15.56
2022-09-11T21:29:03.105Z,15.61
2022-09-11T21:31:48.286Z,15.63
2022-09-11T21:34:33.781Z,15.64
2022-09-11T21:37:18.943Z,15.64
2022-09-11T21:40:05.198Z,15.63
2022-09-11T21:42:50.897Z,15.66
2022-09-11T21:45:35.866Z,15.65
2022-09-11T21:48:21.904Z,15.61
2022-09-11T21:51:18.547Z,15.60
2022-09-11T21:54:04.147Z,15.61
2022-09-11T21:56:49.209Z,15.65
2022-09-11T21:59:34.571Z,15.68
2022-09-11T22:02:20.337Z,15.69
2022-09-11T22:05:06.311Z,15.70
2022-09-11T22:07:51.607Z,15.69
2022-09-11T22:10:41.937Z,15.66
2022-09-11T22:13:27.189Z,15.67
2022-09-11T22:16:15.515Z,15.69
2022-09-11T22:19:01.034Z,15.70
2022-09-11T22:21:46.369Z,15.72
2022-09-11T22:24:31.824Z,15.77
2022-09-11T22:27:17.254Z,15.83
2022-09-11T22:30:04.177Z,15.88
2022-09-11T22:32:50.459Z,15.88
2022-09-11T22:35:36.254Z,15.90
2022-09-11T22:38:21.635Z,15.88
2022-09-11T22:41:07.347Z,15.87
2022-09-11T22:43:53.019Z,15.84
2022-09-11T22:46:38.425Z,15.77
2022-09-11T22:49:23.581Z,15.74
2022-09-11T22:52:09.237Z,15.71
2022-09-11T22:54:54.449Z,15.70
2022-09-11T22:57:39.901Z,15.70
2022-09-11T23:00:25.257Z,15.66
2022-09-11T23:03:10.623Z,15.57
2022-09-11T23:06:15.362Z,15.52
2022-09-11T23:09:04.051Z,15.47
2022-09-11T23:11:49.451Z,15.44
2022-09-11T23:14:34.799Z,15.39
2022-09-11T23:17:20.338Z,15.37
2022-09-11T23:20:06.390Z,15.25
2022-09-11T23:22:52.322Z,15.18
2022-09-11T23:25:42.190Z,15.09
2022-09-11T23:28:27.527Z,15.04
2022-09-11T23:31:16.114Z,15.02
2022-09-11T23:34:06.471Z,15.02
2022-09-11T23:36:52.024Z,14.99
2022-09-11T23:39:37.478Z,14.92
2022-09-11T23:42:23.621Z,14.85
2022-09-11T23:45:10.170Z,14.84
2022-09-11T23:47:55.304Z,14.77
2022-09-11T23:50:40.881Z,14.70
2022-09-11T23:53:26.512Z,14.69
2022-09-11T23:56:14.328Z,14.67
2022-09-11T23:58:59.596Z,14.67
